createdAt,value
2023-01-07T00:01:07.021Z,7.47
2023-01-07T00:06:15.102Z,7.28
2023-01-07T00:11:24.362Z,8.18
2023-01-07T00:16:29.906Z,6.45
2023-01-07T00:21:32.736Z,6.30
2023-01-07T00:26:37.012Z,6.43
2023-01-07T00:31:41.167Z,6.35
2023-01-07T00:36:45.461Z,6.43
2023-01-07T00:42:11.503Z,6.78
2023-01-07T00:47:13.587Z,7.30
2023-01-07T00:52:15.623Z,7.00
2023-01-07T00:57:17.633Z,6.05
2023-01-07T01:02:19.801Z,6.28
2023-01-07T01:07:21.826Z,7.05
2023-01-07T01:12:23.990Z,6.82
2023-01-07T01:17:26.049Z,5.85
2023-01-07T01:22:28.032Z,6.65
2023-01-07T01:27:31.646Z,6.57
2023-01-07T01:32:33.706Z,6.18
2023-01-07T01:37:35.719Z,6.22
2023-01-07T01:42:37.821Z,5.30
2023-01-07T01:47:48.818Z,5.72
2023-01-07T01:53:16.531Z,6.78
2023-01-07T01:58:22.512Z,6.57
2023-01-07T02:03:26.496Z,6.88
2023-01-07T02:08:29.014Z,6.90
2023-01-07T02:19:07.240Z,7.30
2023-01-07T02:24:24.372Z,7.97
2023-01-07T02:29:54.747Z,6.40
2023-01-07T02:35:12.805Z,7.03
2023-01-07T02:40:24.646Z,5.88
2023-01-07T02:45:39.676Z,8.55
2023-01-07T02:50:41.686Z,7.90
2023-01-07T02:56:10.116Z,8.90
2023-01-07T03:01:30.552Z,8.60
2023-01-07T03:12:15.850Z,7.18
2023-01-07T03:17:26.007Z,9.20
2023-01-07T03:22:31.004Z,9.32
2023-01-07T03:27:36.835Z,9.75
2023-01-07T03:32:58.317Z,8.85
2023-01-07T03:38:02.155Z,9.32
2023-01-07T03:43:04.614Z,5.38
2023-01-07T03:48:06.965Z,9.55
2023-01-07T03:53:09.112Z,8.93
2023-01-07T03:58:11.208Z,9.75
2023-01-07T04:03:13.223Z,10.13
2023-01-07T04:08:15.244Z,8.63
2023-01-07T04:13:17.184Z,9.20
2023-01-07T04:18:19.136Z,11.00
2023-01-07T04:23:21.136Z,9.00
2023-01-07T04:28:23.171Z,10.63
2023-01-07T04:33:25.130Z,10.10
2023-01-07T04:38:27.197Z,9.85
2023-01-07T04:43:29.213Z,11.23
2023-01-07T04:48:31.792Z,9.55
2023-01-07T04:53:33.812Z,9.95
2023-01-07T04:58:35.816Z,9.60
2023-01-07T05:03:37.981Z,9.88
2023-01-07T05:08:40.016Z,10.45
2023-01-07T05:13:41.939Z,10.35
2023-01-07T05:18:44.691Z,9.57
2023-01-07T05:23:46.727Z,8.82
2023-01-07T05:28:48.745Z,9.43
2023-01-07T05:33:50.751Z,9.55
2023-01-07T05:38:52.753Z,10.02
2023-01-07T05:43:54.702Z,9.60
2023-01-07T05:48:56.678Z,10.40
2023-01-07T05:53:58.665Z,11.05
2023-01-07T05:59:00.679Z,8.75
2023-01-07T06:04:02.717Z,6.40
2023-01-07T06:09:05.048Z,8.63
2023-01-07T06:14:07.044Z,6.47
2023-01-07T06:19:09.007Z,5.40
2023-01-07T06:24:11.629Z,9.32
2023-01-07T06:34:15.664Z,4.93
2023-01-07T06:39:17.771Z,10.15
2023-01-07T06:44:19.962Z,9.95
2023-01-07T06:49:22.059Z,11.75
2023-01-07T06:54:24.073Z,11.52
2023-01-07T06:59:26.070Z,13.07
2023-01-07T07:04:28.043Z,16.55
2023-01-07T07:09:30.034Z,11.93
2023-01-07T07:14:32.243Z,13.02
2023-01-07T07:19:34.231Z,10.65
2023-01-07T07:24:36.206Z,9.25
2023-01-07T07:29:38.190Z,10.63
2023-01-07T07:34:40.250Z,6.88
2023-01-07T07:39:42.228Z,9.23
2023-01-07T07:44:44.243Z,8.13
2023-01-07T07:49:46.351Z,6.72
2023-01-07T07:54:48.459Z,7.30
2023-01-07T07:59:50.741Z,4.38
2023-01-07T08:04:52.783Z,5.10
2023-01-07T08:09:54.880Z,5.03
2023-01-07T08:14:57.141Z,7.90
2023-01-07T08:19:59.264Z,4.38
2023-01-07T08:25:02.291Z,4.57
2023-01-07T08:30:04.804Z,6.00
2023-01-07T08:35:10.583Z,4.55
2023-01-07T08:40:16.168Z,3.95
2023-01-07T08:45:19.527Z,4.85
2023-01-07T08:50:21.571Z,9.15
2023-01-07T08:55:24.929Z,10.60
2023-01-07T09:00:28.399Z,5.50
2023-01-07T09:05:33.374Z,28.20
2023-01-07T09:10:36.723Z,8.90
2023-01-07T09:15:40.912Z,10.00
2023-01-07T09:20:43.158Z,9.05
2023-01-07T09:25:46.206Z,8.95
2023-01-07T09:30:48.708Z,8.77
2023-01-07T09:35:50.936Z,9.32
2023-01-07T09:40:54.940Z,18.50
2023-01-07T09:46:01.213Z,9.13
2023-01-07T09:51:24.305Z,9.23
2023-01-07T09:56:37.544Z,7.25
2023-01-07T10:01:50.939Z,7.32
2023-01-07T10:07:17.831Z,6.32
2023-01-07T10:12:32.228Z,6.38
2023-01-07T10:17:46.223Z,5.75
2023-01-07T10:22:57.691Z,5.50
2023-01-07T10:28:06.079Z,6.82
2023-01-07T10:33:29.276Z,4.63
2023-01-07T10:38:35.572Z,7.55
2023-01-07T10:44:33.956Z,8.27
2023-01-07T10:49:57.765Z,5.32
2023-01-07T10:55:06.232Z,3.60
2023-01-07T11:00:14.843Z,7.05
2023-01-07T11:05:21.357Z,5.13
2023-01-07T11:10:30.743Z,4.57
2023-01-07T11:15:37.670Z,7.43
2023-01-07T11:20:54.705Z,4.68
2023-01-07T11:26:06.524Z,3.83
2023-01-07T11:31:09.217Z,9.50
2023-01-07T11:36:12.432Z,9.15
2023-01-07T11:41:27.166Z,6.35
2023-01-07T11:46:32.734Z,13.13
2023-01-07T11:51:41.660Z,10.95
2023-01-07T11:56:43.841Z,7.57
2023-01-07T12:01:55.214Z,10.50
2023-01-07T12:07:01.687Z,9.20
2023-01-07T12:12:39.669Z,8.65
2023-01-07T12:17:50.788Z,8.18
2023-01-07T12:23:23.296Z,9.98
2023-01-07T12:28:51.490Z,7.63
2023-01-07T12:34:28.984Z,11.18
2023-01-07T12:39:45.622Z,9.98
2023-01-07T12:44:52.240Z,8.50
2023-01-07T12:50:22.083Z,12.30
2023-01-07T12:55:35.071Z,12.18
2023-01-07T13:00:47.118Z,13.35
2023-01-07T13:05:54.813Z,20.02
2023-01-07T13:11:04.099Z,17.13
2023-01-07T13:16:06.878Z,14.85
2023-01-07T13:21:11.102Z,17.17
2023-01-07T13:26:51.057Z,14.63
2023-01-07T13:32:13.316Z,13.82
2023-01-07T13:37:29.178Z,14.70
2023-01-07T13:43:02.682Z,16.27
2023-01-07T13:48:17.836Z,17.63
2023-01-07T13:53:19.870Z,18.05
2023-01-07T13:58:32.263Z,19.30
2023-01-07T14:03:39.524Z,25.08
2023-01-07T14:08:42.844Z,16.45
2023-01-07T14:14:14.155Z,17.95
2023-01-07T14:19:58.926Z,17.90
2023-01-07T14:25:09.578Z,16.67
2023-01-07T14:30:29.441Z,16.30
2023-01-07T14:35:40.833Z,15.82
2023-01-07T14:40:42.949Z,17.13
2023-01-07T14:45:45.114Z,16.13
2023-01-07T14:51:03.983Z,17.52
2023-01-07T14:56:18.346Z,20.90
2023-01-07T15:01:29.656Z,25.50
2023-01-07T15:06:36.566Z,27.58
2023-01-07T15:12:00.595Z,24.38
2023-01-07T15:17:03.804Z,22.55
2023-01-07T15:22:09.236Z,19.88
2023-01-07T15:27:33.523Z,18.20
2023-01-07T15:33:01.729Z,27.83
2023-01-07T15:38:10.027Z,24.83
2023-01-07T15:43:26.870Z,31.88
2023-01-07T15:48:32.449Z,24.92
2023-01-07T15:53:37.059Z,24.17
2023-01-07T15:58:46.830Z,22.45
2023-01-07T16:03:51.859Z,18.98
2023-01-07T16:09:03.530Z,19.20
2023-01-07T16:14:20.626Z,21.52
2023-01-07T16:19:24.573Z,25.60
2023-01-07T16:24:34.405Z,23.88
2023-01-07T16:29:46.565Z,22.98
2023-01-07T16:35:16.217Z,23.90
2023-01-07T16:40:36.817Z,84.53
2023-01-07T16:45:41.481Z,57.03
2023-01-07T16:50:49.003Z,25.13
2023-01-07T16:55:58.962Z,25.48
2023-01-07T17:01:09.414Z,29.35
2023-01-07T17:06:20.947Z,25.48
2023-01-07T17:11:51.770Z,25.27
2023-01-07T17:17:10.887Z,26.25
2023-01-07T17:22:42.318Z,26.15
2023-01-07T17:27:57.974Z,23.65
2023-01-07T17:33:05.915Z,28.38
2023-01-07T17:38:16.992Z,23.23
2023-01-07T17:43:37.306Z,24.35
2023-01-07T17:53:48.963Z,22.45
2023-01-07T17:58:57.360Z,21.58
2023-01-07T18:04:03.834Z,21.60
2023-01-07T18:09:08.964Z,21.55
2023-01-07T18:14:16.196Z,22.38
2023-01-07T18:19:19.217Z,23.95
2023-01-07T18:24:23.116Z,25.38
2023-01-07T18:29:29.719Z,25.60
2023-01-07T18:34:34.176Z,30.30
2023-01-07T18:39:39.122Z,27.63
2023-01-07T18:44:41.517Z,26.77
2023-01-07T18:49:44.578Z,29.55
2023-01-07T18:55:14.544Z,32.78
2023-01-07T19:00:18.934Z,39.20
2023-01-07T19:05:21.367Z,66.97
2023-01-07T19:10:25.176Z,37.60
2023-01-07T19:15:36.893Z,36.92
2023-01-07T19:20:47.739Z,43.17
2023-01-07T19:26:02.019Z,50.90
2023-01-07T19:31:09.249Z,44.10
2023-01-07T19:36:17.671Z,41.63
2023-01-07T19:41:21.777Z,37.95
2023-01-07T19:46:25.736Z,32.30
2023-01-07T19:51:28.675Z,31.33
2023-01-07T19:57:01.629Z,39.90
2023-01-07T20:08:34.259Z,28.15
2023-01-07T20:13:40.710Z,29.80
2023-01-07T20:19:11.566Z,26.05
2023-01-07T20:24:30.292Z,29.20
2023-01-07T20:29:47.123Z,33.40
2023-01-07T20:34:50.568Z,26.92
2023-01-07T20:39:52.814Z,27.63
2023-01-07T20:44:55.409Z,29.10
2023-01-07T20:50:01.993Z,23.73
2023-01-07T20:55:07.060Z,24.48
2023-01-07T21:00:10.940Z,26.02
2023-01-07T21:05:14.467Z,27.50
2023-01-07T21:10:19.363Z,28.95
2023-01-07T21:15:22.827Z,31.65
2023-01-07T21:20:26.159Z,31.60
2023-01-07T21:25:29.404Z,49.17
2023-01-07T21:30:32.732Z,29.48
2023-01-07T21:35:38.415Z,25.88
2023-01-07T21:40:56.051Z,23.85
2023-01-07T21:46:09.819Z,26.67
2023-01-07T21:51:19.108Z,27.02
2023-01-07T21:56:22.274Z,26.77
2023-01-07T22:01:29.078Z,24.90
2023-01-07T22:06:36.785Z,24.65
2023-01-07T22:11:42.182Z,26.00
2023-01-07T22:16:46.879Z,23.08
2023-01-07T22:21:52.787Z,21.55
2023-01-07T22:26:55.942Z,23.23
2023-01-07T22:32:08.014Z,22.00
2023-01-07T22:37:15.015Z,24.88
2023-01-07T22:42:27.020Z,29.88
2023-01-07T22:47:36.682Z,37.10
2023-01-07T22:52:39.761Z,25.38
2023-01-07T22:57:42.329Z,28.48
2023-01-07T23:02:44.535Z,22.10
2023-01-07T23:07:46.571Z,22.50
2023-01-07T23:12:48.706Z,22.20
2023-01-07T23:22:52.876Z,22.05
2023-01-07T23:27:54.925Z,20.92
2023-01-07T23:32:57.259Z,24.60
2023-01-07T23:43:03.927Z,22.00
2023-01-07T23:48:06.096Z,25.60
2023-01-07T23:53:08.124Z,27.77
2023-01-07T23:58:10.552Z,22.48
